Terminal Aerodrome Forecast
Issued by NWS

Home | Current Version | Previous Version | Text Only | Print | Product List | Glossary On
Versions: 1 2 3 4 5 6 7 8 9 10 11 12 13 14 15 16 17 18
000
FTUS44 KMAF 280500
TAFPEQ
TAF
KPEQ 280527Z 2806/2906 10013KT P6SM SCT200
     FM281200 10012KT P6SM BKN250
     FM281600 15013G23KT P6SM SCT060 SCT250
     FM290200 11010KT P6SM BKN200=

USA.gov is the U.S. government's official web portal to all federal, state and local government web resources and services.